• Join FlightAware (Why Join?)
  • Login
  • US Flag 
Rudolph Flight #1: Arrived! 
03:09AM EST


 

Airport Tracker/Info


-or-


 

Live Flight TrackerFlight Track Log ✈ VOODOO1 ✈ 19-Dec-2013 ✈ KTUS - KTUS

Flight Track Log - Related Links

Times and Time Zones

All times are in EST time to prevent confusion due to time zone crossing. See the VOODOO1 flight status page for this flight to view local times or setup timezone preferences in your user account.

Time Position Orientation Groundspeed Altitude Reporting Facility
EST Latitude Longitude Course Direction KTS MPH feet Rate Location/Type
10:29AM 32.1008 -110.9228 193° South 287 330 3,200  Level Albuquerque Center
10:30AM 32.0500 -110.9367 193° South 309 356 6,700 2,220 Climbing Albuquerque Center
10:31AM 32.0606 -111.0344 277° West 322 371 7,300 540 Climbing Albuquerque Center
10:31AM 32.0611 -111.0336 52° Northeast 325 374 7,300 720 Level Albuquerque Center
10:31AM 32.0711 -111.1322 277° West 324 373 8,000 720 Climbing Albuquerque Center
10:32AM 32.0736 -111.1389 294° West 325 374 8,100  Climbing Albuquerque Center
10:33AM 32.0861 -111.2453 278° West 325 374 8,000 360 Descending Albuquerque Center
10:34AM 32.1003 -111.3542 279° West 329 379 8,900 540 Climbing Albuquerque Center
10:35AM 32.1133 -111.4919 276° West 345 397 9,200 1,260 Climbing Albuquerque Center
10:36AM 32.1200 -111.6286 273° West 384 442 11,600  Climbing Albuquerque Center
11:29AM 32.5081 -111.6131 North 368 423 9,700 -60 Descending Albuquerque Center
11:30AM 32.4658 -111.4803 111° Southeast 377 434 8,400 -1,200 Descending Albuquerque Center
11:31AM 32.4308 -111.3533 108° East 378 435 7,100 -780 Descending Albuquerque Center
11:32AM 32.3875 -111.2617 119° Southeast 347 399 6,900 -420 Descending Albuquerque Center
11:33AM 32.3175 -111.1769 134° Southeast 313 360 6,300 -540 Descending Albuquerque Center
11:34AM 32.2594 -111.1092 135° Southeast 298 343 5,800 -660 Descending Albuquerque Center
11:35AM 32.2089 -111.0472 134° Southeast 285 328 5,100 -1,080 Descending Albuquerque Center
11:36AM 32.1675 -111.0006 136° Southeast 211 243 3,800 -1,140 Descending Albuquerque Center
11:37AM 32.1317 -110.9597 136° Southeast 180 207 2,800  Descending Albuquerque Center
11:38AM 32.1050 -110.9217 130° Southeast 137 158 3,800 600 Climbing Albuquerque Center
11:39AM 32.1508 -110.9472 335° Northwest 245 282 3,800 -720 Level Albuquerque Center
11:40AM 32.1225 -110.9447 176° South 209 241 2,600 -180 Descending Albuquerque Center
11:47AM 32.1308 -110.9550 314° West 3 3 2,500 -60 Descending Albuquerque Center